sensor_id;sensor_type;location;lat;lon;timestamp;P1;durP1;ratioP1;P2;durP2;ratioP2
75261;SDS011;63859;51.064;4.580;2022-10-31T00:01:19;27.05;;;14.27;;
75261;SDS011;63859;51.064;4.580;2022-10-31T00:03:47;33.45;;;14.95;;
75261;SDS011;63859;51.064;4.580;2022-10-31T00:06:13;25.48;;;14.60;;
75261;SDS011;63859;51.064;4.580;2022-10-31T00:08:39;25.38;;;14.02;;
75261;SDS011;63859;51.064;4.580;2022-10-31T00:11:08;25.20;;;14.38;;
75261;SDS011;63859;51.064;4.580;2022-10-31T00:13:34;23.75;;;15.07;;
75261;SDS011;63859;51.064;4.580;2022-10-31T00:16:00;25.20;;;14.45;;
75261;SDS011;63859;51.064;4.580;2022-10-31T00:18:25;26.88;;;15.40;;
75261;SDS011;63859;51.064;4.580;2022-10-31T00:20:58;23.90;;;14.85;;
75261;SDS011;63859;51.064;4.580;2022-10-31T00:23:27;27.40;;;15.30;;
75261;SDS011;63859;51.064;4.580;2022-10-31T00:25:53;29.42;;;14.57;;
75261;SDS011;63859;51.064;4.580;2022-10-31T00:28:19;24.48;;;14.07;;
75261;SDS011;63859;51.064;4.580;2022-10-31T00:30:45;23.35;;;14.10;;
75261;SDS011;63859;51.064;4.580;2022-10-31T00:33:11;26.38;;;14.55;;
75261;SDS011;63859;51.064;4.580;2022-10-31T00:35:36;31.70;;;15.25;;
75261;SDS011;63859;51.064;4.580;2022-10-31T00:38:02;32.22;;;15.32;;
75261;SDS011;63859;51.064;4.580;2022-10-31T00:40:27;22.75;;;14.38;;
75261;SDS011;63859;51.064;4.580;2022-10-31T00:42:53;25.50;;;15.25;;
75261;SDS011;63859;51.064;4.580;2022-10-31T00:45:19;26.67;;;14.60;;
75261;SDS011;63859;51.064;4.580;2022-10-31T00:47:44;25.58;;;13.98;;
75261;SDS011;63859;51.064;4.580;2022-10-31T00:50:10;26.30;;;14.68;;
75261;SDS011;63859;51.064;4.580;2022-10-31T00:52:35;23.33;;;15.07;;
75261;SDS011;63859;51.064;4.580;2022-10-31T00:55:01;25.05;;;14.55;;
75261;SDS011;63859;51.064;4.580;2022-10-31T00:57:27;31.63;;;15.07;;
75261;SDS011;63859;51.064;4.580;2022-10-31T00:59:52;25.55;;;13.68;;
75261;SDS011;63859;51.064;4.580;2022-10-31T01:02:18;24.35;;;15.00;;
75261;SDS011;63859;51.064;4.580;2022-10-31T01:04:43;25.85;;;14.13;;
75261;SDS011;63859;51.064;4.580;2022-10-31T01:07:09;27.02;;;14.82;;
75261;SDS011;63859;51.064;4.580;2022-10-31T01:09:37;26.35;;;15.13;;
75261;SDS011;63859;51.064;4.580;2022-10-31T01:12:02;22.77;;;13.65;;
75261;SDS011;63859;51.064;4.580;2022-10-31T01:14:28;22.35;;;14.38;;
75261;SDS011;63859;51.064;4.580;2022-10-31T01:16:54;27.88;;;14.60;;
75261;SDS011;63859;51.064;4.580;2022-10-31T01:19:19;22.80;;;14.80;;
75261;SDS011;63859;51.064;4.580;2022-10-31T01:21:45;26.27;;;14.98;;
75261;SDS011;63859;51.064;4.580;2022-10-31T01:24:10;29.35;;;14.38;;
75261;SDS011;63859;51.064;4.580;2022-10-31T01:26:36;29.05;;;14.70;;
75261;SDS011;63859;51.064;4.580;2022-10-31T01:29:06;26.05;;;14.50;;
75261;SDS011;63859;51.064;4.580;2022-10-31T01:31:33;26.35;;;14.38;;
75261;SDS011;63859;51.064;4.580;2022-10-31T01:34:00;31.52;;;14.32;;
75261;SDS011;63859;51.064;4.580;2022-10-31T01:36:27;26.90;;;15.02;;
75261;SDS011;63859;51.064;4.580;2022-10-31T01:38:56;30.77;;;14.93;;
75261;SDS011;63859;51.064;4.580;2022-10-31T01:41:29;34.08;;;14.80;;
75261;SDS011;63859;51.064;4.580;2022-10-31T01:43:57;23.27;;;14.30;;
75261;SDS011;63859;51.064;4.580;2022-10-31T01:46:28;30.80;;;14.48;;
75261;SDS011;63859;51.064;4.580;2022-10-31T01:48:58;30.42;;;14.73;;
75261;SDS011;63859;51.064;4.580;2022-10-31T01:51:31;24.63;;;13.77;;
75261;SDS011;63859;51.064;4.580;2022-10-31T01:54:01;23.67;;;14.48;;
75261;SDS011;63859;51.064;4.580;2022-10-31T01:56:33;23.10;;;14.85;;
75261;SDS011;63859;51.064;4.580;2022-10-31T01:59:04;29.05;;;15.25;;
75261;SDS011;63859;51.064;4.580;2022-10-31T02:01:33;28.35;;;14.32;;
75261;SDS011;63859;51.064;4.580;2022-10-31T02:04:00;25.75;;;15.05;;
75261;SDS011;63859;51.064;4.580;2022-10-31T02:06:32;28.17;;;15.30;;
75261;SDS011;63859;51.064;4.580;2022-10-31T02:09:04;26.92;;;15.18;;
75261;SDS011;63859;51.064;4.580;2022-10-31T02:11:31;22.58;;;14.48;;
75261;SDS011;63859;51.064;4.580;2022-10-31T02:13:58;27.33;;;14.82;;
75261;SDS011;63859;51.064;4.580;2022-10-31T02:16:25;21.73;;;14.77;;
75261;SDS011;63859;51.064;4.580;2022-10-31T02:18:51;24.10;;;14.25;;
75261;SDS011;63859;51.064;4.580;2022-10-31T02:21:18;29.98;;;14.35;;
75261;SDS011;63859;51.064;4.580;2022-10-31T02:26:57;24.42;;;13.73;;
75261;SDS011;63859;51.064;4.580;2022-10-31T02:41:18;22.77;;;14.48;;
75261;SDS011;63859;51.064;4.580;2022-10-31T02:46:53;24.85;;;13.48;;
75261;SDS011;63859;51.064;4.580;2022-10-31T02:52:16;29.98;;;14.13;;
75261;SDS011;63859;51.064;4.580;2022-10-31T02:54:43;33.33;;;14.32;;
75261;SDS011;63859;51.064;4.580;2022-10-31T02:57:11;23.70;;;13.13;;
75261;SDS011;63859;51.064;4.580;2022-10-31T02:59:40;25.20;;;13.97;;
75261;SDS011;63859;51.064;4.580;2022-10-31T03:05:04;23.95;;;14.18;;
75261;SDS011;63859;51.064;4.580;2022-10-31T03:10:41;27.42;;;14.70;;
75261;SDS011;63859;51.064;4.580;2022-10-31T03:16:22;25.38;;;14.70;;
75261;SDS011;63859;51.064;4.580;2022-10-31T03:19:02;25.48;;;14.45;;
75261;SDS011;63859;51.064;4.580;2022-10-31T03:21:35;25.60;;;15.27;;
75261;SDS011;63859;51.064;4.580;2022-10-31T03:24:11;28.73;;;15.27;;
75261;SDS011;63859;51.064;4.580;2022-10-31T03:26:40;27.00;;;14.55;;
75261;SDS011;63859;51.064;4.580;2022-10-31T03:29:10;28.17;;;15.60;;
75261;SDS011;63859;51.064;4.580;2022-10-31T03:31:42;34.25;;;16.30;;
75261;SDS011;63859;51.064;4.580;2022-10-31T03:34:17;31.67;;;16.00;;
75261;SDS011;63859;51.064;4.580;2022-10-31T03:36:44;30.63;;;15.90;;
75261;SDS011;63859;51.064;4.580;2022-10-31T03:39:14;30.03;;;15.50;;
75261;SDS011;63859;51.064;4.580;2022-10-31T03:41:43;28.87;;;16.27;;
75261;SDS011;63859;51.064;4.580;2022-10-31T03:44:19;26.90;;;15.53;;
75261;SDS011;63859;51.064;4.580;2022-10-31T03:46:47;29.80;;;16.07;;
75261;SDS011;63859;51.064;4.580;2022-10-31T03:49:13;26.52;;;16.15;;
75261;SDS011;63859;51.064;4.580;2022-10-31T03:51:43;31.10;;;15.90;;
75261;SDS011;63859;51.064;4.580;2022-10-31T03:56:52;27.43;;;15.77;;
75261;SDS011;63859;51.064;4.580;2022-10-31T03:59:26;26.48;;;14.75;;
75261;SDS011;63859;51.064;4.580;2022-10-31T04:02:03;24.23;;;14.90;;
75261;SDS011;63859;51.064;4.580;2022-10-31T04:04:32;24.92;;;15.23;;
75261;SDS011;63859;51.064;4.580;2022-10-31T04:06:59;29.23;;;15.20;;
75261;SDS011;63859;51.064;4.580;2022-10-31T04:09:26;29.93;;;15.67;;
75261;SDS011;63859;51.064;4.580;2022-10-31T04:11:54;26.17;;;14.97;;
75261;SDS011;63859;51.064;4.580;2022-10-31T04:14:24;27.03;;;15.77;;
75261;SDS011;63859;51.064;4.580;2022-10-31T04:16:52;21.97;;;13.93;;
75261;SDS011;63859;51.064;4.580;2022-10-31T04:19:19;29.05;;;14.80;;
75261;SDS011;63859;51.064;4.580;2022-10-31T04:21:44;26.77;;;15.10;;
75261;SDS011;63859;51.064;4.580;2022-10-31T04:24:10;25.37;;;15.07;;
75261;SDS011;63859;51.064;4.580;2022-10-31T04:26:36;28.25;;;15.43;;
75261;SDS011;63859;51.064;4.580;2022-10-31T04:29:02;30.23;;;15.33;;
75261;SDS011;63859;51.064;4.580;2022-10-31T04:31:28;27.17;;;15.33;;
75261;SDS011;63859;51.064;4.580;2022-10-31T04:33:53;26.07;;;14.10;;
75261;SDS011;63859;51.064;4.580;2022-10-31T04:36:19;25.80;;;14.87;;
75261;SDS011;63859;51.064;4.580;2022-10-31T04:38:45;26.10;;;15.10;;
75261;SDS011;63859;51.064;4.580;2022-10-31T04:41:10;29.33;;;14.18;;
75261;SDS011;63859;51.064;4.580;2022-10-31T04:43:36;24.77;;;15.60;;
75261;SDS011;63859;51.064;4.580;2022-10-31T04:46:01;27.70;;;14.50;;
75261;SDS011;63859;51.064;4.580;2022-10-31T04:48:27;27.70;;;14.88;;
75261;SDS011;63859;51.064;4.580;2022-10-31T04:50:57;26.87;;;15.30;;
75261;SDS011;63859;51.064;4.580;2022-10-31T04:53:24;25.10;;;16.50;;
75261;SDS011;63859;51.064;4.580;2022-10-31T04:55:49;28.00;;;15.43;;
75261;SDS011;63859;51.064;4.580;2022-10-31T04:58:15;24.80;;;15.30;;
75261;SDS011;63859;51.064;4.580;2022-10-31T05:00:40;29.37;;;15.60;;
75261;SDS011;63859;51.064;4.580;2022-10-31T05:03:06;22.87;;;15.13;;
75261;SDS011;63859;51.064;4.580;2022-10-31T05:05:32;29.00;;;14.57;;
75261;SDS011;63859;51.064;4.580;2022-10-31T05:07:57;25.92;;;14.93;;
75261;SDS011;63859;51.064;4.580;2022-10-31T05:10:24;24.73;;;13.98;;
75261;SDS011;63859;51.064;4.580;2022-10-31T05:12:52;21.40;;;13.57;;
75261;SDS011;63859;51.064;4.580;2022-10-31T05:15:19;24.57;;;13.80;;
75261;SDS011;63859;51.064;4.580;2022-10-31T05:17:46;25.48;;;14.65;;
75261;SDS011;63859;51.064;4.580;2022-10-31T05:20:13;22.20;;;13.47;;
75261;SDS011;63859;51.064;4.580;2022-10-31T05:22:47;26.73;;;13.45;;
75261;SDS011;63859;51.064;4.580;2022-10-31T05:25:14;26.13;;;15.05;;
75261;SDS011;63859;51.064;4.580;2022-10-31T05:27:41;32.13;;;15.23;;
75261;SDS011;63859;51.064;4.580;2022-10-31T05:30:08;26.70;;;15.80;;
75261;SDS011;63859;51.064;4.580;2022-10-31T05:32:41;28.83;;;16.67;;
75261;SDS011;63859;51.064;4.580;2022-10-31T05:35:10;31.85;;;16.95;;
75261;SDS011;63859;51.064;4.580;2022-10-31T05:37:37;27.73;;;15.80;;
75261;SDS011;63859;51.064;4.580;2022-10-31T05:40:04;31.70;;;16.23;;
75261;SDS011;63859;51.064;4.580;2022-10-31T05:42:31;35.47;;;16.47;;
75261;SDS011;63859;51.064;4.580;2022-10-31T05:44:57;27.67;;;15.63;;
75261;SDS011;63859;51.064;4.580;2022-10-31T05:47:22;35.03;;;16.60;;
75261;SDS011;63859;51.064;4.580;2022-10-31T05:49:48;33.50;;;16.08;;
75261;SDS011;63859;51.064;4.580;2022-10-31T05:52:14;30.93;;;16.13;;
75261;SDS011;63859;51.064;4.580;2022-10-31T05:54:40;29.70;;;16.33;;
75261;SDS011;63859;51.064;4.580;2022-10-31T05:57:06;29.17;;;16.10;;
75261;SDS011;63859;51.064;4.580;2022-10-31T05:59:31;33.73;;;16.73;;
75261;SDS011;63859;51.064;4.580;2022-10-31T06:01:57;31.00;;;15.97;;
75261;SDS011;63859;51.064;4.580;2022-10-31T06:04:22;27.37;;;15.60;;
75261;SDS011;63859;51.064;4.580;2022-10-31T06:06:48;30.10;;;16.70;;
75261;SDS011;63859;51.064;4.580;2022-10-31T06:09:13;32.30;;;16.20;;
75261;SDS011;63859;51.064;4.580;2022-10-31T06:11:39;29.33;;;16.07;;
75261;SDS011;63859;51.064;4.580;2022-10-31T06:14:05;31.53;;;16.93;;
75261;SDS011;63859;51.064;4.580;2022-10-31T06:16:31;28.27;;;16.33;;
75261;SDS011;63859;51.064;4.580;2022-10-31T06:18:56;29.70;;;16.93;;
75261;SDS011;63859;51.064;4.580;2022-10-31T06:21:22;26.00;;;16.75;;
75261;SDS011;63859;51.064;4.580;2022-10-31T06:23:48;26.37;;;16.20;;
75261;SDS011;63859;51.064;4.580;2022-10-31T06:26:13;31.58;;;16.92;;
75261;SDS011;63859;51.064;4.580;2022-10-31T06:28:39;34.80;;;17.30;;
75261;SDS011;63859;51.064;4.580;2022-10-31T06:31:05;35.70;;;17.97;;
75261;SDS011;63859;51.064;4.580;2022-10-31T06:33:31;35.87;;;16.57;;
75261;SDS011;63859;51.064;4.580;2022-10-31T06:35:57;35.07;;;17.20;;
75261;SDS011;63859;51.064;4.580;2022-10-31T06:38:23;36.47;;;17.33;;
75261;SDS011;63859;51.064;4.580;2022-10-31T06:40:49;41.80;;;17.05;;
75261;SDS011;63859;51.064;4.580;2022-10-31T06:43:15;31.03;;;16.67;;
75261;SDS011;63859;51.064;4.580;2022-10-31T06:45:41;38.17;;;17.20;;
75261;SDS011;63859;51.064;4.580;2022-10-31T06:48:06;30.30;;;17.00;;
75261;SDS011;63859;51.064;4.580;2022-10-31T06:50:32;32.72;;;16.85;;
75261;SDS011;63859;51.064;4.580;2022-10-31T06:52:58;35.20;;;16.90;;
75261;SDS011;63859;51.064;4.580;2022-10-31T06:55:24;31.45;;;16.05;;
75261;SDS011;63859;51.064;4.580;2022-10-31T06:57:51;29.15;;;17.63;;
75261;SDS011;63859;51.064;4.580;2022-10-31T07:00:18;37.63;;;16.73;;
75261;SDS011;63859;51.064;4.580;2022-10-31T07:02:51;31.97;;;16.37;;
75261;SDS011;63859;51.064;4.580;2022-10-31T07:05:20;32.23;;;16.43;;
75261;SDS011;63859;51.064;4.580;2022-10-31T07:07:46;34.73;;;17.37;;
75261;SDS011;63859;51.064;4.580;2022-10-31T07:10:12;28.92;;;16.65;;
75261;SDS011;63859;51.064;4.580;2022-10-31T07:12:37;40.87;;;16.83;;
75261;SDS011;63859;51.064;4.580;2022-10-31T07:15:03;33.13;;;17.07;;
75261;SDS011;63859;51.064;4.580;2022-10-31T07:17:29;29.90;;;17.03;;
75261;SDS011;63859;51.064;4.580;2022-10-31T07:19:55;33.90;;;17.53;;
75261;SDS011;63859;51.064;4.580;2022-10-31T07:22:21;32.47;;;16.13;;
75261;SDS011;63859;51.064;4.580;2022-10-31T07:24:46;35.08;;;16.73;;
75261;SDS011;63859;51.064;4.580;2022-10-31T07:27:12;27.40;;;16.60;;
75261;SDS011;63859;51.064;4.580;2022-10-31T07:29:38;32.72;;;16.30;;
75261;SDS011;63859;51.064;4.580;2022-10-31T07:32:03;34.50;;;16.67;;
75261;SDS011;63859;51.064;4.580;2022-10-31T07:34:29;31.53;;;16.23;;
75261;SDS011;63859;51.064;4.580;2022-10-31T07:36:54;29.45;;;17.23;;
75261;SDS011;63859;51.064;4.580;2022-10-31T07:39:20;30.57;;;16.67;;
75261;SDS011;63859;51.064;4.580;2022-10-31T07:41:46;34.03;;;16.87;;
75261;SDS011;63859;51.064;4.580;2022-10-31T07:44:11;30.60;;;17.00;;
75261;SDS011;63859;51.064;4.580;2022-10-31T07:46:37;32.38;;;18.27;;
75261;SDS011;63859;51.064;4.580;2022-10-31T07:49:02;37.97;;;17.70;;
75261;SDS011;63859;51.064;4.580;2022-10-31T07:51:28;36.97;;;18.50;;
75261;SDS011;63859;51.064;4.580;2022-10-31T07:53:54;34.27;;;18.77;;
75261;SDS011;63859;51.064;4.580;2022-10-31T07:56:20;34.22;;;17.17;;
75261;SDS011;63859;51.064;4.580;2022-10-31T07:58:45;36.00;;;17.98;;
75261;SDS011;63859;51.064;4.580;2022-10-31T08:01:11;35.08;;;19.38;;
75261;SDS011;63859;51.064;4.580;2022-10-31T08:03:36;39.77;;;20.10;;
75261;SDS011;63859;51.064;4.580;2022-10-31T08:06:02;39.42;;;19.50;;
75261;SDS011;63859;51.064;4.580;2022-10-31T08:08:28;38.83;;;18.85;;
75261;SDS011;63859;51.064;4.580;2022-10-31T08:10:54;34.97;;;19.43;;
75261;SDS011;63859;51.064;4.580;2022-10-31T08:13:20;35.60;;;19.47;;
75261;SDS011;63859;51.064;4.580;2022-10-31T08:15:46;42.65;;;19.80;;
75261;SDS011;63859;51.064;4.580;2022-10-31T08:18:15;36.38;;;19.65;;
75261;SDS011;63859;51.064;4.580;2022-10-31T08:20:41;34.38;;;19.75;;
75261;SDS011;63859;51.064;4.580;2022-10-31T08:23:08;35.88;;;20.10;;
75261;SDS011;63859;51.064;4.580;2022-10-31T08:25:35;32.13;;;18.92;;
75261;SDS011;63859;51.064;4.580;2022-10-31T08:28:01;37.90;;;20.37;;
75261;SDS011;63859;51.064;4.580;2022-10-31T08:30:28;38.15;;;20.45;;
75261;SDS011;63859;51.064;4.580;2022-10-31T08:32:59;37.47;;;20.73;;
75261;SDS011;63859;51.064;4.580;2022-10-31T08:35:26;33.50;;;19.20;;
75261;SDS011;63859;51.064;4.580;2022-10-31T08:37:53;37.93;;;19.27;;
75261;SDS011;63859;51.064;4.580;2022-10-31T08:40:22;39.92;;;20.55;;
75261;SDS011;63859;51.064;4.580;2022-10-31T08:42:54;37.95;;;19.35;;
75261;SDS011;63859;51.064;4.580;2022-10-31T08:45:41;34.35;;;19.25;;
75261;SDS011;63859;51.064;4.580;2022-10-31T08:48:11;35.17;;;18.70;;
75261;SDS011;63859;51.064;4.580;2022-10-31T08:50:38;35.08;;;20.10;;
75261;SDS011;63859;51.064;4.580;2022-10-31T08:53:05;34.67;;;19.67;;
75261;SDS011;63859;51.064;4.580;2022-10-31T08:55:36;41.97;;;19.83;;
75261;SDS011;63859;51.064;4.580;2022-10-31T08:58:04;36.20;;;20.10;;
75261;SDS011;63859;51.064;4.580;2022-10-31T09:00:31;37.78;;;20.33;;
75261;SDS011;63859;51.064;4.580;2022-10-31T09:02:58;38.20;;;21.95;;
75261;SDS011;63859;51.064;4.580;2022-10-31T09:05:24;39.58;;;21.88;;
75261;SDS011;63859;51.064;4.580;2022-10-31T09:07:50;38.35;;;22.20;;
75261;SDS011;63859;51.064;4.580;2022-10-31T09:10:19;46.17;;;22.08;;
75261;SDS011;63859;51.064;4.580;2022-10-31T09:12:45;50.00;;;23.30;;
75261;SDS011;63859;51.064;4.580;2022-10-31T09:15:10;47.60;;;24.30;;
75261;SDS011;63859;51.064;4.580;2022-10-31T09:17:36;47.00;;;23.88;;
75261;SDS011;63859;51.064;4.580;2022-10-31T09:20:02;41.80;;;24.00;;
75261;SDS011;63859;51.064;4.580;2022-10-31T09:22:27;49.20;;;25.05;;
75261;SDS011;63859;51.064;4.580;2022-10-31T09:24:53;46.75;;;24.70;;
75261;SDS011;63859;51.064;4.580;2022-10-31T09:27:18;44.40;;;23.70;;
75261;SDS011;63859;51.064;4.580;2022-10-31T09:29:44;44.92;;;24.63;;
75261;SDS011;63859;51.064;4.580;2022-10-31T09:32:09;44.67;;;24.17;;
75261;SDS011;63859;51.064;4.580;2022-10-31T09:34:35;40.17;;;24.35;;
75261;SDS011;63859;51.064;4.580;2022-10-31T09:37:01;46.40;;;26.08;;
75261;SDS011;63859;51.064;4.580;2022-10-31T09:39:26;45.28;;;25.60;;
75261;SDS011;63859;51.064;4.580;2022-10-31T09:42:04;45.00;;;24.50;;
75261;SDS011;63859;51.064;4.580;2022-10-31T09:47:48;44.95;;;22.73;;
75261;SDS011;63859;51.064;4.580;2022-10-31T09:50:26;38.50;;;22.17;;
75261;SDS011;63859;51.064;4.580;2022-10-31T09:55:29;39.00;;;22.50;;
75261;SDS011;63859;51.064;4.580;2022-10-31T09:58:01;40.28;;;20.95;;
75261;SDS011;63859;51.064;4.580;2022-10-31T10:00:27;40.97;;;21.77;;
75261;SDS011;63859;51.064;4.580;2022-10-31T10:02:56;41.08;;;22.10;;
75261;SDS011;63859;51.064;4.580;2022-10-31T10:08:55;37.25;;;20.65;;
75261;SDS011;63859;51.064;4.580;2022-10-31T10:11:44;40.08;;;23.63;;
75261;SDS011;63859;51.064;4.580;2022-10-31T10:14:45;43.47;;;22.55;;
75261;SDS011;63859;51.064;4.580;2022-10-31T10:17:25;41.63;;;22.58;;
75261;SDS011;63859;51.064;4.580;2022-10-31T10:23:05;40.90;;;22.40;;
75261;SDS011;63859;51.064;4.580;2022-10-31T10:25:59;42.35;;;22.63;;
75261;SDS011;63859;51.064;4.580;2022-10-31T10:28:47;41.40;;;22.90;;
75261;SDS011;63859;51.064;4.580;2022-10-31T10:31:18;41.22;;;22.75;;
75261;SDS011;63859;51.064;4.580;2022-10-31T10:33:55;46.83;;;22.63;;
75261;SDS011;63859;51.064;4.580;2022-10-31T10:36:32;42.05;;;23.08;;
75261;SDS011;63859;51.064;4.580;2022-10-31T10:41:45;43.05;;;22.23;;
75261;SDS011;63859;51.064;4.580;2022-10-31T10:44:32;37.45;;;21.25;;
75261;SDS011;63859;51.064;4.580;2022-10-31T10:47:17;45.80;;;23.15;;
75261;SDS011;63859;51.064;4.580;2022-10-31T10:50:01;38.38;;;21.85;;
75261;SDS011;63859;51.064;4.580;2022-10-31T10:58:28;41.63;;;22.25;;
75261;SDS011;63859;51.064;4.580;2022-10-31T11:00:54;41.83;;;22.73;;
75261;SDS011;63859;51.064;4.580;2022-10-31T11:03:20;41.83;;;23.42;;
75261;SDS011;63859;51.064;4.580;2022-10-31T11:05:47;48.38;;;24.58;;
75261;SDS011;63859;51.064;4.580;2022-10-31T11:08:49;46.35;;;23.17;;
75261;SDS011;63859;51.064;4.580;2022-10-31T11:11:18;40.15;;;23.23;;
75261;SDS011;63859;51.064;4.580;2022-10-31T11:13:52;41.55;;;23.45;;
75261;SDS011;63859;51.064;4.580;2022-10-31T11:18:53;44.72;;;23.20;;
75261;SDS011;63859;51.064;4.580;2022-10-31T11:21:30;53.10;;;23.73;;
75261;SDS011;63859;51.064;4.580;2022-10-31T11:24:02;44.38;;;22.38;;
75261;SDS011;63859;51.064;4.580;2022-10-31T11:26:28;44.60;;;23.35;;
75261;SDS011;63859;51.064;4.580;2022-10-31T11:28:57;46.17;;;22.30;;
75261;SDS011;63859;51.064;4.580;2022-10-31T11:31:24;37.38;;;21.85;;
75261;SDS011;63859;51.064;4.580;2022-10-31T11:34:00;37.78;;;21.42;;
75261;SDS011;63859;51.064;4.580;2022-10-31T11:36:30;38.10;;;21.08;;
75261;SDS011;63859;51.064;4.580;2022-10-31T11:38:59;45.83;;;22.27;;
75261;SDS011;63859;51.064;4.580;2022-10-31T11:41:33;39.40;;;20.80;;
75261;SDS011;63859;51.064;4.580;2022-10-31T11:46:39;38.22;;;18.92;;
75261;SDS011;63859;51.064;4.580;2022-10-31T11:49:14;36.80;;;18.83;;
75261;SDS011;63859;51.064;4.580;2022-10-31T11:51:46;35.78;;;18.33;;
75261;SDS011;63859;51.064;4.580;2022-10-31T11:54:19;46.00;;;19.73;;
75261;SDS011;63859;51.064;4.580;2022-10-31T11:56:47;43.15;;;18.60;;
75261;SDS011;63859;51.064;4.580;2022-10-31T11:59:29;36.70;;;17.55;;
75261;SDS011;63859;51.064;4.580;2022-10-31T12:01:56;35.05;;;18.83;;
75261;SDS011;63859;51.064;4.580;2022-10-31T12:04:27;33.75;;;17.52;;
75261;SDS011;63859;51.064;4.580;2022-10-31T12:06:59;33.22;;;17.40;;
75261;SDS011;63859;51.064;4.580;2022-10-31T12:09:27;26.58;;;16.42;;
75261;SDS011;63859;51.064;4.580;2022-10-31T12:14:51;37.63;;;17.52;;
75261;SDS011;63859;51.064;4.580;2022-10-31T12:42:10;24.95;;;13.80;;
75261;SDS011;63859;51.064;4.580;2022-10-31T12:44:48;28.05;;;13.82;;
75261;SDS011;63859;51.064;4.580;2022-10-31T12:55:37;20.95;;;11.25;;
75261;SDS011;63859;51.064;4.580;2022-10-31T12:58:25;19.92;;;10.68;;
75261;SDS011;63859;51.064;4.580;2022-10-31T13:01:09;22.08;;;11.07;;
75261;SDS011;63859;51.064;4.580;2022-10-31T13:03:44;26.67;;;10.88;;
75261;SDS011;63859;51.064;4.580;2022-10-31T13:06:19;24.08;;;11.10;;
75261;SDS011;63859;51.064;4.580;2022-10-31T13:08:53;28.08;;;10.57;;
75261;SDS011;63859;51.064;4.580;2022-10-31T13:11:33;28.98;;;9.65;;
75261;SDS011;63859;51.064;4.580;2022-10-31T13:14:09;21.55;;;10.15;;
75261;SDS011;63859;51.064;4.580;2022-10-31T13:16:46;23.75;;;9.70;;
75261;SDS011;63859;51.064;4.580;2022-10-31T13:19:17;19.38;;;9.02;;
75261;SDS011;63859;51.064;4.580;2022-10-31T13:24:39;23.42;;;9.40;;
75261;SDS011;63859;51.064;4.580;2022-10-31T13:27:30;16.13;;;8.85;;
75261;SDS011;63859;51.064;4.580;2022-10-31T13:30:15;18.33;;;8.73;;
75261;SDS011;63859;51.064;4.580;2022-10-31T13:36:15;18.08;;;7.68;;
75261;SDS011;63859;51.064;4.580;2022-10-31T13:41:40;14.73;;;8.07;;
75261;SDS011;63859;51.064;4.580;2022-10-31T13:44:13;25.15;;;10.02;;
75261;SDS011;63859;51.064;4.580;2022-10-31T13:46:43;21.75;;;8.55;;
75261;SDS011;63859;51.064;4.580;2022-10-31T13:51:50;21.52;;;9.52;;
75261;SDS011;63859;51.064;4.580;2022-10-31T13:56:50;19.48;;;9.27;;
75261;SDS011;63859;51.064;4.580;2022-10-31T13:59:23;16.85;;;8.73;;
75261;SDS011;63859;51.064;4.580;2022-10-31T14:01:52;20.17;;;9.30;;
75261;SDS011;63859;51.064;4.580;2022-10-31T14:07:10;20.88;;;9.18;;
75261;SDS011;63859;51.064;4.580;2022-10-31T14:09:38;17.52;;;8.90;;
75261;SDS011;63859;51.064;4.580;2022-10-31T14:12:27;28.35;;;9.27;;
75261;SDS011;63859;51.064;4.580;2022-10-31T14:15:03;25.02;;;8.93;;
75261;SDS011;63859;51.064;4.580;2022-10-31T14:17:47;18.58;;;9.93;;
75261;SDS011;63859;51.064;4.580;2022-10-31T14:20:31;26.23;;;8.75;;
75261;SDS011;63859;51.064;4.580;2022-10-31T14:26:05;19.50;;;9.13;;
75261;SDS011;63859;51.064;4.580;2022-10-31T14:28:41;27.38;;;10.00;;
75261;SDS011;63859;51.064;4.580;2022-10-31T14:33:50;15.70;;;8.25;;
75261;SDS011;63859;51.064;4.580;2022-10-31T14:36:18;19.92;;;8.25;;
75261;SDS011;63859;51.064;4.580;2022-10-31T14:47:21;17.65;;;7.80;;
75261;SDS011;63859;51.064;4.580;2022-10-31T14:52:40;13.75;;;7.68;;
75261;SDS011;63859;51.064;4.580;2022-10-31T14:55:10;18.85;;;7.70;;
75261;SDS011;63859;51.064;4.580;2022-10-31T14:57:38;15.07;;;7.88;;
75261;SDS011;63859;51.064;4.580;2022-10-31T15:00:22;18.30;;;8.43;;
75261;SDS011;63859;51.064;4.580;2022-10-31T15:02:59;18.30;;;8.00;;
75261;SDS011;63859;51.064;4.580;2022-10-31T15:05:48;19.10;;;7.82;;
75261;SDS011;63859;51.064;4.580;2022-10-31T15:08:33;16.75;;;7.78;;
75261;SDS011;63859;51.064;4.580;2022-10-31T15:11:09;16.30;;;7.43;;
75261;SDS011;63859;51.064;4.580;2022-10-31T15:13:50;24.85;;;7.72;;
75261;SDS011;63859;51.064;4.580;2022-10-31T15:16:19;19.83;;;7.85;;
75261;SDS011;63859;51.064;4.580;2022-10-31T15:18:48;19.63;;;7.72;;
75261;SDS011;63859;51.064;4.580;2022-10-31T15:21:20;17.48;;;8.18;;
75261;SDS011;63859;51.064;4.580;2022-10-31T15:23:47;19.92;;;8.32;;
75261;SDS011;63859;51.064;4.580;2022-10-31T15:26:16;19.50;;;8.07;;
75261;SDS011;63859;51.064;4.580;2022-10-31T15:28:43;15.77;;;8.02;;
75261;SDS011;63859;51.064;4.580;2022-10-31T15:31:13;21.40;;;8.48;;
75261;SDS011;63859;51.064;4.580;2022-10-31T15:33:42;17.27;;;7.93;;
75261;SDS011;63859;51.064;4.580;2022-10-31T15:36:22;18.30;;;8.35;;
75261;SDS011;63859;51.064;4.580;2022-10-31T15:38:49;20.23;;;8.90;;
75261;SDS011;63859;51.064;4.580;2022-10-31T15:43:53;21.80;;;8.48;;
75261;SDS011;63859;51.064;4.580;2022-10-31T15:46:20;22.70;;;9.13;;
75261;SDS011;63859;51.064;4.580;2022-10-31T15:48:46;19.67;;;8.30;;
75261;SDS011;63859;51.064;4.580;2022-10-31T15:51:13;18.20;;;8.77;;
75261;SDS011;63859;51.064;4.580;2022-10-31T15:53:43;22.25;;;9.32;;
75261;SDS011;63859;51.064;4.580;2022-10-31T15:56:20;20.40;;;9.52;;
75261;SDS011;63859;51.064;4.580;2022-10-31T15:58:51;23.73;;;10.02;;
75261;SDS011;63859;51.064;4.580;2022-10-31T16:01:28;25.30;;;10.07;;
75261;SDS011;63859;51.064;4.580;2022-10-31T16:04:00;22.92;;;9.32;;
75261;SDS011;63859;51.064;4.580;2022-10-31T16:06:29;22.02;;;10.30;;
75261;SDS011;63859;51.064;4.580;2022-10-31T16:08:55;17.98;;;10.52;;
75261;SDS011;63859;51.064;4.580;2022-10-31T16:11:27;28.85;;;10.77;;
75261;SDS011;63859;51.064;4.580;2022-10-31T16:14:15;28.08;;;11.25;;
75261;SDS011;63859;51.064;4.580;2022-10-31T16:16:46;27.13;;;12.25;;
75261;SDS011;63859;51.064;4.580;2022-10-31T16:19:20;35.63;;;12.27;;
75261;SDS011;63859;51.064;4.580;2022-10-31T16:21:53;20.50;;;10.48;;
75261;SDS011;63859;51.064;4.580;2022-10-31T16:24:31;26.50;;;11.95;;
75261;SDS011;63859;51.064;4.580;2022-10-31T16:27:06;28.08;;;12.55;;
75261;SDS011;63859;51.064;4.580;2022-10-31T16:29:45;26.80;;;11.45;;
75261;SDS011;63859;51.064;4.580;2022-10-31T16:32:24;28.00;;;12.52;;
75261;SDS011;63859;51.064;4.580;2022-10-31T16:35:38;27.83;;;12.02;;
75261;SDS011;63859;51.064;4.580;2022-10-31T16:38:04;28.67;;;12.27;;
75261;SDS011;63859;51.064;4.580;2022-10-31T16:40:30;24.77;;;12.20;;
75261;SDS011;63859;51.064;4.580;2022-10-31T16:42:57;26.70;;;13.00;;
75261;SDS011;63859;51.064;4.580;2022-10-31T16:45:25;25.55;;;13.15;;
75261;SDS011;63859;51.064;4.580;2022-10-31T16:47:52;26.65;;;12.88;;
75261;SDS011;63859;51.064;4.580;2022-10-31T16:50:20;27.27;;;13.57;;